KCVS/CVS METAR and TAF weather

Enter ICAO airport designator
Station Type Date Time Source
KCVS METAR 2021/09/24 05:58 UTC NOAA

KCVS 240558Z 14004KT 10SM FEW220 16/04 A3009 RMK AO2A SLPNO T01570038 10281 20157 52009 $


Station Type Date Time Source
KCVS Decoded METAR 2021/09/24 05:58 UTC NOAA

Cannon Air Force Base / Clovis, NM, United States (KCVS) 34-23N 103-19W
Sep 24, 2021 - 01:58 AM EDT / 2021.09.24 0558 UTC
Wind: from the SE (140 degrees) at 5 MPH (4 KT):0
Visibility: 10 mile(s):0
Sky conditions: mostly clear
Temperature: 60.3 F (15.7 C)
Dew Point: 38.8 F (3.8 C)
Relative Humidity: 44%
Pressure (altimeter): 30.09 in. Hg (1018 hPa)
Pressure tendency: 0.03 inches (0.9 hPa) higher than three hours ago
ob: KCVS 240558Z 14004KT 10SM FEW220 16/04 A3009 RMK AO2A SLPNO T01570038 10281 20157 52009
cycle: 6

Station Type Date Time Source
KCVS TAF 2021/09/24 02:34 UTC NOAA

TAF KCVS 240215Z 2402/2508 VRB06KT 9999 FEW100 BKN200 QNH3008INS
BECMG 2414/2415 19010G15KT 9999 FEW100 SCT200 QNH3006INS
BECMG 2417/2418 20012G20KT 9999 FEW200 QNH3014INS
BECMG 2423/2424 20010KT 9999 SKC QNH3002INS
BECMG 2502/2503 VRB06KT 9999 SKC QNH3002INS TX29/2421Z TN14/2412Z

Example: see airport list